createdAt,value
2018-10-01T00:02:19.325Z,11.30
2018-10-01T00:04:47.615Z,11.40
2018-10-01T00:07:15.905Z,11.30
2018-10-01T00:09:44.547Z,11.40
2018-10-01T00:12:12.904Z,11.40
2018-10-01T00:14:41.251Z,11.30
2018-10-01T00:17:09.579Z,11.40
2018-10-01T00:19:43.349Z,11.40
2018-10-01T00:22:17.054Z,11.40
2018-10-01T00:24:45.371Z,11.40
2018-10-01T00:27:13.671Z,11.40
2018-10-01T00:29:41.985Z,11.40
2018-10-01T00:32:10.422Z,11.40
2018-10-01T00:34:38.723Z,11.40
2018-10-01T00:37:07.051Z,11.30
2018-10-01T00:39:35.405Z,11.40
2018-10-01T00:42:03.736Z,11.30
2018-10-01T00:44:32.042Z,11.40
2018-10-01T00:47:00.355Z,11.40
2018-10-01T00:49:28.659Z,11.40
2018-10-01T00:51:56.984Z,11.40
2018-10-01T00:54:25.503Z,11.40
2018-10-01T00:56:53.824Z,11.30
2018-10-01T00:59:22.104Z,11.30
2018-10-01T01:01:50.410Z,11.30
2018-10-01T01:04:18.752Z,11.30
2018-10-01T01:06:47.172Z,11.30
2018-10-01T01:09:15.461Z,11.30
2018-10-01T01:11:43.782Z,11.30
2018-10-01T01:14:12.080Z,11.20
2018-10-01T01:16:40.414Z,11.20
2018-10-01T01:19:08.711Z,11.10
2018-10-01T01:21:36.979Z,11.00
2018-10-01T01:24:05.402Z,10.90
2018-10-01T01:26:33.738Z,10.80
2018-10-01T01:29:02.023Z,10.80
2018-10-01T01:31:30.341Z,10.70
2018-10-01T01:33:58.640Z,10.70
2018-10-01T01:36:26.969Z,10.70
2018-10-01T01:38:55.310Z,10.60
2018-10-01T01:41:23.664Z,10.60
2018-10-01T01:43:51.969Z,10.50
2018-10-01T01:46:20.279Z,10.40
2018-10-01T01:48:48.941Z,10.40
2018-10-01T01:51:17.242Z,10.40
2018-10-01T01:53:45.522Z,10.40
2018-10-01T01:56:13.878Z,10.40
2018-10-01T01:58:42.139Z,10.30
2018-10-01T02:01:10.410Z,10.30
2018-10-01T02:03:38.681Z,10.30
2018-10-01T02:06:06.964Z,10.30
2018-10-01T02:08:35.241Z,10.30
2018-10-01T02:11:04.193Z,10.20
2018-10-01T02:13:32.456Z,10.20
2018-10-01T02:16:00.778Z,10.10
2018-10-01T02:18:29.041Z,10.10
2018-10-01T02:20:57.343Z,10.00
2018-10-01T02:23:25.651Z,10.00
2018-10-01T02:25:54.031Z,9.90
2018-10-01T02:28:22.300Z,9.80
2018-10-01T02:30:50.605Z,9.80
2018-10-01T02:33:18.896Z,9.80
2018-10-01T02:35:47.184Z,9.90
2018-10-01T02:38:15.891Z,9.90
2018-10-01T02:40:44.687Z,9.90
2018-10-01T02:43:13.349Z,9.90
2018-10-01T02:45:41.979Z,9.80
2018-10-01T02:48:10.259Z,9.80
2018-10-01T02:50:38.586Z,9.80
2018-10-01T02:53:12.139Z,9.70
2018-10-01T02:55:40.459Z,9.70
2018-10-01T02:58:08.953Z,9.70
2018-10-01T03:00:37.244Z,9.60
2018-10-01T03:03:05.551Z,9.60
2018-10-01T03:05:33.850Z,9.60
2018-10-01T03:08:02.167Z,9.60
2018-10-01T03:10:30.430Z,9.70
2018-10-01T03:12:58.738Z,9.60
2018-10-01T03:15:27.030Z,9.70
2018-10-01T03:17:55.323Z,9.70
2018-10-01T03:20:23.654Z,9.60
2018-10-01T03:22:51.947Z,9.60
2018-10-01T03:25:20.257Z,9.60
2018-10-01T03:27:48.593Z,9.50
2018-10-01T03:30:16.898Z,9.40
2018-10-01T03:32:45.179Z,9.40
2018-10-01T03:35:13.610Z,9.30
2018-10-01T03:37:41.904Z,9.30
2018-10-01T03:40:10.888Z,9.30
2018-10-01T03:42:39.378Z,9.20
2018-10-01T03:45:07.693Z,9.20
2018-10-01T03:47:36.387Z,9.10
2018-10-01T03:50:04.692Z,9.10
2018-10-01T03:52:32.989Z,9.10
2018-10-01T03:55:01.300Z,9.00
2018-10-01T03:57:29.616Z,9.00
2018-10-01T03:59:57.921Z,8.90
2018-10-01T04:02:26.242Z,8.90
2018-10-01T04:04:54.563Z,9.00
2018-10-01T04:07:22.869Z,9.00
2018-10-01T04:09:51.265Z,9.00
2018-10-01T04:12:19.553Z,9.00
2018-10-01T04:14:47.861Z,9.00
2018-10-01T04:17:16.194Z,9.00
2018-10-01T04:19:44.503Z,9.00
2018-10-01T04:22:12.777Z,9.10
2018-10-01T04:24:41.055Z,9.00
2018-10-01T04:27:09.352Z,9.00
2018-10-01T04:29:37.656Z,9.00
2018-10-01T04:32:05.963Z,9.00
2018-10-01T04:34:34.251Z,9.00
2018-10-01T04:37:02.539Z,9.00
2018-10-01T04:39:30.853Z,8.90
2018-10-01T04:41:59.199Z,8.80
2018-10-01T04:44:27.513Z,8.80
2018-10-01T04:46:55.820Z,8.80
2018-10-01T04:49:24.270Z,8.70
2018-10-01T04:51:52.724Z,8.80
2018-10-01T04:54:21.074Z,8.80
2018-10-01T04:56:49.581Z,8.80
2018-10-01T04:59:17.894Z,8.90
2018-10-01T05:01:46.265Z,8.90
2018-10-01T05:04:14.545Z,8.90
2018-10-01T05:06:42.824Z,8.90
2018-10-01T05:09:11.726Z,8.80
2018-10-01T05:11:40.015Z,8.80
2018-10-01T05:14:08.325Z,8.80
2018-10-01T05:16:36.627Z,8.80
2018-10-01T05:19:05.031Z,8.80
2018-10-01T05:21:33.571Z,8.80
2018-10-01T05:24:01.938Z,8.80
2018-10-01T05:26:30.234Z,8.80
2018-10-01T05:28:58.802Z,8.90
2018-10-01T05:31:27.133Z,8.90
2018-10-01T05:33:55.629Z,9.00
2018-10-01T05:36:23.972Z,9.10
2018-10-01T05:38:52.445Z,9.10
2018-10-01T05:41:20.747Z,9.10
2018-10-01T05:43:49.070Z,9.10
2018-10-01T05:46:17.389Z,9.20
2018-10-01T05:48:45.811Z,9.20
2018-10-01T05:51:14.610Z,9.10
2018-10-01T05:53:42.911Z,9.00
2018-10-01T05:56:11.211Z,8.80
2018-10-01T05:58:39.517Z,8.70
2018-10-01T06:01:07.827Z,8.80
2018-10-01T06:03:36.194Z,8.80
2018-10-01T06:06:04.474Z,8.90
2018-10-01T06:08:32.756Z,8.90
2018-10-01T06:11:01.076Z,9.00
2018-10-01T06:13:29.483Z,9.00
2018-10-01T06:15:58.357Z,9.00
2018-10-01T06:18:26.666Z,9.10
2018-10-01T06:20:55.055Z,9.10
2018-10-01T06:23:23.328Z,9.10
2018-10-01T06:25:51.652Z,9.20
2018-10-01T06:28:20.366Z,9.20
2018-10-01T06:30:48.675Z,9.20
2018-10-01T06:33:16.959Z,9.20
2018-10-01T06:35:45.308Z,9.30
2018-10-01T06:38:13.677Z,9.30
2018-10-01T06:40:42.012Z,9.30
2018-10-01T06:43:10.322Z,9.30
2018-10-01T06:45:38.632Z,9.20
2018-10-01T06:48:07.190Z,9.20
2018-10-01T06:50:35.481Z,9.20
2018-10-01T06:53:03.809Z,9.20
2018-10-01T06:55:32.282Z,9.20
2018-10-01T06:58:00.603Z,9.30
2018-10-01T07:00:28.913Z,9.40
2018-10-01T07:02:57.200Z,9.50
2018-10-01T07:05:26.376Z,9.70
2018-10-01T07:07:54.853Z,9.80
2018-10-01T07:10:23.402Z,9.80
2018-10-01T07:12:51.721Z,9.70
2018-10-01T07:15:20.157Z,9.60
2018-10-01T07:17:48.682Z,9.60
2018-10-01T07:20:17.041Z,9.50
2018-10-01T07:22:45.718Z,9.40
2018-10-01T07:25:14.177Z,9.40
2018-10-01T07:27:42.439Z,9.50
2018-10-01T07:30:10.763Z,9.50
2018-10-01T07:32:39.134Z,9.60
2018-10-01T07:35:07.468Z,9.70
2018-10-01T07:37:35.759Z,9.90
2018-10-01T07:40:04.042Z,9.90
2018-10-01T07:42:32.642Z,10.00
2018-10-01T07:45:01.106Z,10.00
2018-10-01T07:47:29.439Z,10.10
2018-10-01T07:49:57.753Z,10.10
2018-10-01T07:52:26.119Z,10.10
2018-10-01T07:54:54.428Z,10.10
2018-10-01T07:57:22.792Z,10.30
2018-10-01T07:59:51.337Z,10.40
2018-10-01T08:02:19.868Z,10.50
2018-10-01T08:10:34.328Z,10.10
2018-10-01T08:13:02.676Z,10.00
2018-10-01T08:15:31.040Z,9.80
2018-10-01T08:17:59.537Z,9.70
2018-10-01T08:20:27.949Z,9.70
2018-10-01T08:22:56.468Z,9.60
2018-10-01T08:25:24.873Z,9.50
2018-10-01T08:27:53.410Z,9.50
2018-10-01T08:30:21.710Z,9.50
2018-10-01T08:32:50.029Z,9.50
2018-10-01T08:35:18.443Z,9.60
2018-10-01T08:37:46.954Z,9.60
2018-10-01T08:40:15.291Z,9.80
2018-10-01T08:42:43.626Z,10.10
2018-10-01T08:45:11.961Z,10.20
2018-10-01T08:47:40.399Z,10.30
2018-10-01T09:24:45.893Z,11.30
2018-10-01T09:27:14.169Z,11.30
2018-10-01T09:29:42.452Z,11.30
2018-10-01T09:32:10.825Z,11.30
2018-10-01T09:34:39.264Z,11.20
2018-10-01T09:37:07.575Z,11.20
2018-10-01T09:39:35.881Z,11.30
2018-10-01T09:42:04.220Z,11.40
2018-10-01T09:44:32.740Z,11.50
2018-10-01T09:47:01.241Z,11.70
2018-10-01T09:49:29.586Z,11.80
2018-10-01T09:51:57.986Z,11.90
2018-10-01T09:54:26.473Z,11.90
2018-10-01T09:56:54.775Z,11.90
2018-10-01T09:59:23.111Z,12.10
2018-10-01T10:01:51.518Z,12.20
2018-10-01T10:04:19.934Z,12.20
2018-10-01T10:06:54.543Z,12.20
2018-10-01T10:09:22.936Z,12.10
2018-10-01T10:11:51.288Z,12.10
2018-10-01T10:14:19.674Z,12.20
2018-10-01T10:16:48.263Z,12.20
2018-10-01T10:19:17.126Z,12.50
2018-10-01T10:21:45.408Z,12.70
2018-10-01T10:24:13.728Z,12.70
2018-10-01T10:26:42.149Z,12.50
2018-10-01T10:37:51.952Z,12.00
2018-10-01T10:40:20.350Z,12.10
2018-10-01T10:42:48.716Z,12.40
2018-10-01T10:45:17.049Z,12.60
2018-10-01T10:47:45.370Z,12.70
2018-10-01T10:50:13.812Z,12.80
2018-10-01T10:52:42.672Z,12.60
2018-10-01T10:55:11.323Z,12.60
2018-10-01T10:57:39.647Z,12.60
2018-10-01T11:00:10.308Z,12.60
2018-10-01T11:02:38.675Z,12.90
2018-10-01T11:05:07.389Z,12.90
2018-10-01T11:07:35.690Z,13.00
2018-10-01T11:10:04.320Z,13.10
2018-10-01T11:12:32.667Z,13.10
2018-10-01T11:15:01.496Z,12.90
2018-10-01T11:17:29.878Z,12.80
2018-10-01T11:19:58.432Z,12.90
2018-10-01T11:57:03.353Z,12.70
2018-10-01T11:59:31.793Z,12.70
2018-10-01T12:02:00.166Z,12.90
2018-10-01T12:04:28.464Z,13.00
2018-10-01T12:06:56.761Z,13.10
2018-10-01T12:09:25.081Z,13.00
2018-10-01T12:11:53.603Z,13.00
2018-10-01T12:14:21.964Z,13.00
2018-10-01T12:16:50.360Z,13.10
2018-10-01T12:19:18.650Z,12.80
2018-10-01T12:21:47.058Z,12.50
2018-10-01T12:24:15.528Z,12.40
2018-10-01T12:26:43.849Z,12.10
2018-10-01T12:29:12.231Z,11.80
2018-10-01T12:31:40.984Z,11.80
2018-10-01T12:34:09.290Z,11.90
2018-10-01T12:36:37.665Z,11.90
2018-10-01T12:39:08.328Z,11.80
2018-10-01T12:41:36.847Z,12.00
2018-10-01T12:44:05.497Z,12.30
2018-10-01T12:46:33.845Z,12.30
2018-10-01T12:49:02.220Z,12.50
2018-10-01T12:51:30.528Z,12.60
2018-10-01T12:53:58.836Z,12.80
2018-10-01T12:56:27.189Z,12.90
2018-10-01T12:58:55.470Z,13.00
2018-10-01T13:01:23.767Z,13.00
2018-10-01T13:03:52.136Z,13.00
2018-10-01T13:08:54.769Z,12.70
2018-10-01T13:11:23.322Z,12.80
2018-10-01T13:13:51.682Z,12.90
2018-10-01T13:16:20.007Z,12.70
2018-10-01T13:18:48.500Z,11.80
2018-10-01T13:21:16.909Z,11.00
2018-10-01T13:23:45.265Z,10.80
2018-10-01T13:26:13.741Z,10.70
2018-10-01T13:28:42.095Z,10.90
2018-10-01T13:31:10.642Z,11.00
2018-10-01T13:33:38.988Z,11.30
2018-10-01T13:36:07.353Z,11.50
2018-10-01T13:38:35.952Z,11.60
2018-10-01T13:41:04.953Z,11.60
2018-10-01T13:43:33.323Z,11.50
2018-10-01T13:46:01.762Z,11.50
2018-10-01T13:48:30.233Z,11.40
2018-10-01T13:50:58.755Z,11.40
2018-10-01T13:53:27.060Z,11.30
2018-10-01T13:55:55.384Z,11.40
2018-10-01T13:58:23.764Z,11.60
2018-10-01T14:01:01.102Z,11.90
2018-10-01T14:03:29.444Z,12.10
2018-10-01T14:05:57.790Z,12.50
2018-10-01T14:08:26.181Z,12.70
2018-10-01T14:10:54.468Z,12.20
2018-10-01T14:13:22.917Z,12.10
2018-10-01T14:15:51.398Z,12.00
2018-10-01T14:18:19.744Z,11.80
2018-10-01T14:20:48.057Z,11.70
2018-10-01T14:23:16.396Z,11.80
2018-10-01T14:25:44.725Z,12.00
2018-10-01T14:28:13.393Z,12.30
2018-10-01T14:30:41.731Z,12.60
2018-10-01T14:33:10.502Z,12.90
2018-10-01T14:35:39.006Z,12.90
2018-10-01T14:38:07.392Z,12.80
2018-10-01T14:40:35.689Z,12.60
2018-10-01T14:43:04.069Z,12.40
2018-10-01T14:45:33.125Z,12.30
2018-10-01T14:48:01.682Z,12.30
2018-10-01T14:50:30.283Z,12.40
2018-10-01T14:52:58.915Z,12.20
2018-10-01T14:55:27.316Z,12.10
2018-10-01T14:57:55.656Z,12.10
2018-10-01T15:00:24.161Z,12.00
2018-10-01T15:02:52.574Z,12.00
2018-10-01T15:05:20.918Z,12.10
2018-10-01T15:07:49.276Z,12.20
2018-10-01T15:10:17.625Z,12.40
2018-10-01T15:12:46.022Z,12.40
2018-10-01T15:15:14.579Z,12.20
2018-10-01T15:17:42.967Z,12.10
2018-10-01T15:20:11.331Z,12.00
2018-10-01T15:22:39.716Z,11.90
2018-10-01T15:25:08.420Z,11.70
2018-10-01T15:27:36.829Z,11.80
2018-10-01T15:30:05.733Z,12.10
2018-10-01T15:32:34.872Z,12.20
2018-10-01T15:35:03.254Z,12.10
2018-10-01T15:37:31.737Z,12.10
2018-10-01T15:40:00.499Z,12.10
2018-10-01T15:42:28.934Z,11.90
2018-10-01T15:44:57.366Z,11.60
2018-10-01T15:47:25.722Z,11.90
2018-10-01T15:49:54.155Z,12.10
2018-10-01T15:52:22.626Z,12.10
2018-10-01T15:54:51.071Z,12.00
2018-10-01T15:57:19.498Z,12.00
2018-10-01T15:59:47.953Z,12.00
2018-10-01T16:02:16.801Z,11.80
2018-10-01T16:04:45.183Z,11.60
2018-10-01T16:07:13.526Z,11.00
2018-10-01T16:09:41.927Z,10.20
2018-10-01T16:12:10.329Z,9.80
2018-10-01T16:14:38.768Z,9.30
2018-10-01T16:17:07.925Z,9.00
2018-10-01T16:19:36.457Z,8.70
2018-10-01T16:22:05.049Z,8.80
2018-10-01T16:24:33.462Z,8.80
2018-10-01T16:27:01.866Z,8.90
2018-10-01T16:29:30.485Z,8.90
2018-10-01T16:32:01.077Z,8.90
2018-10-01T16:34:29.461Z,9.00
2018-10-01T16:36:57.883Z,9.00
2018-10-01T16:39:26.240Z,9.00
2018-10-01T16:41:54.582Z,9.10
2018-10-01T16:44:22.961Z,9.10
2018-10-01T16:46:51.500Z,9.20
2018-10-01T16:49:19.888Z,9.20
2018-10-01T16:51:48.456Z,9.30
2018-10-01T16:54:16.769Z,9.40
2018-10-01T16:56:45.359Z,9.40
2018-10-01T16:59:13.751Z,9.40
2018-10-01T17:01:43.663Z,9.40
2018-10-01T17:04:13.642Z,9.40
2018-10-01T17:06:42.976Z,9.40
2018-10-01T17:09:11.813Z,9.50
2018-10-01T17:11:41.495Z,9.40
2018-10-01T17:14:11.546Z,9.20
2018-10-01T17:16:42.617Z,9.10
2018-10-01T17:19:11.422Z,9.00
2018-10-01T17:21:43.093Z,8.90
2018-10-01T17:24:13.464Z,8.80
2018-10-01T17:26:42.749Z,8.80
2018-10-01T17:29:12.127Z,8.80
2018-10-01T17:31:41.930Z,8.80
2018-10-01T17:34:11.367Z,8.70
2018-10-01T17:36:40.643Z,8.60
2018-10-01T17:39:10.533Z,8.50
2018-10-01T17:41:40.610Z,8.50
2018-10-01T17:44:09.732Z,8.40
2018-10-01T17:46:38.393Z,8.40
2018-10-01T17:49:08.329Z,8.40
2018-10-01T17:51:37.391Z,8.30
2018-10-01T17:54:06.756Z,8.30
2018-10-01T17:56:35.893Z,8.30
2018-10-01T17:59:05.356Z,8.20
2018-10-01T18:01:34.657Z,8.20
2018-10-01T18:04:04.288Z,8.20
2018-10-01T18:06:32.840Z,8.10
2018-10-01T18:09:04.007Z,8.10
2018-10-01T18:13:02.896Z,8.10
2018-10-01T18:15:32.137Z,8.20
2018-10-01T18:18:01.592Z,8.30
2018-10-01T18:20:31.287Z,8.40
2018-10-01T18:23:00.584Z,8.40
2018-10-01T18:25:29.684Z,8.50
2018-10-01T18:27:58.524Z,8.50
2018-10-01T18:30:27.554Z,8.50
2018-10-01T18:32:57.339Z,8.60
2018-10-01T18:35:26.768Z,8.60
2018-10-01T18:37:56.028Z,8.70
2018-10-01T18:40:24.783Z,8.80
2018-10-01T18:42:53.471Z,8.80
2018-10-01T18:47:57.940Z,8.80
2018-10-01T18:50:26.816Z,8.80
2018-10-01T18:53:00.835Z,8.80
2018-10-01T18:55:30.184Z,8.80
2018-10-01T18:58:11.320Z,8.70
2018-10-01T19:00:41.634Z,8.60
2018-10-01T19:03:10.731Z,8.50
2018-10-01T19:05:41.468Z,8.50
2018-10-01T19:08:10.388Z,8.50
2018-10-01T19:10:39.217Z,8.50
2018-10-01T19:13:09.280Z,8.50
2018-10-01T19:15:38.250Z,8.50
2018-10-01T19:18:07.023Z,8.50
2018-10-01T19:20:36.083Z,8.50
2018-10-01T19:23:05.644Z,8.50
2018-10-01T19:25:35.196Z,8.60
2018-10-01T19:28:04.666Z,8.60
2018-10-01T19:30:34.154Z,8.60
2018-10-01T19:33:03.198Z,8.60
2018-10-01T19:35:32.229Z,8.60
2018-10-01T19:38:01.216Z,8.70
2018-10-01T19:40:30.728Z,8.70
2018-10-01T19:42:59.626Z,8.80
2018-10-01T19:45:28.143Z,8.80
2018-10-01T19:47:57.145Z,8.80
2018-10-01T19:50:25.770Z,8.80
2018-10-01T19:52:54.898Z,8.80
2018-10-01T19:55:23.961Z,8.80
2018-10-01T19:57:56.245Z,8.80
2018-10-01T20:00:25.524Z,8.80
2018-10-01T20:02:54.517Z,8.80
2018-10-01T20:05:23.831Z,8.80
2018-10-01T20:07:53.212Z,8.70
2018-10-01T20:10:21.943Z,8.70
2018-10-01T20:12:50.596Z,8.70
2018-10-01T20:15:19.537Z,8.70
2018-10-01T20:17:48.903Z,8.70
2018-10-01T20:20:17.815Z,8.70
2018-10-01T20:22:47.187Z,8.80
2018-10-01T20:25:15.975Z,8.80
2018-10-01T20:27:44.702Z,8.90
2018-10-01T20:30:14.765Z,8.90
2018-10-01T20:32:44.069Z,9.00
2018-10-01T20:35:13.064Z,9.00
2018-10-01T20:39:10.972Z,9.00
2018-10-01T20:41:39.722Z,8.90
2018-10-01T20:44:08.998Z,8.90
2018-10-01T20:46:38.066Z,8.90
2018-10-01T20:49:07.280Z,8.90
2018-10-01T20:51:36.982Z,8.80
2018-10-01T20:54:06.157Z,8.80
2018-10-01T20:59:11.298Z,8.90
2018-10-01T21:01:41.428Z,8.90
2018-10-01T21:04:10.331Z,8.90
2018-10-01T21:06:40.107Z,9.00
2018-10-01T21:09:13.087Z,9.00
2018-10-01T21:11:42.609Z,9.00
2018-10-01T21:14:12.064Z,9.00
2018-10-01T21:16:41.671Z,9.00
2018-10-01T21:19:10.782Z,9.10
2018-10-01T21:21:39.790Z,9.10
2018-10-01T21:24:09.172Z,9.10
2018-10-01T21:26:38.748Z,9.10
2018-10-01T21:29:08.113Z,9.10
2018-10-01T21:31:37.224Z,9.10
2018-10-01T21:34:06.446Z,9.10
2018-10-01T21:36:35.792Z,9.10
2018-10-01T21:39:06.136Z,9.00
2018-10-01T21:41:35.115Z,9.00
2018-10-01T21:44:04.659Z,9.00
2018-10-01T21:46:33.699Z,8.90
2018-10-01T21:49:03.276Z,8.90
2018-10-01T21:58:20.435Z,8.90
2018-10-01T22:00:54.673Z,8.80
2018-10-01T22:03:23.551Z,8.80
2018-10-01T22:05:52.404Z,8.80
2018-10-01T22:08:20.894Z,8.80
2018-10-01T22:10:49.773Z,8.80
2018-10-01T22:13:18.579Z,8.80
2018-10-01T22:15:48.132Z,8.80
2018-10-01T22:18:18.759Z,8.90
2018-10-01T22:20:47.374Z,8.90
2018-10-01T22:23:16.918Z,9.00
2018-10-01T22:25:45.638Z,9.00
2018-10-01T22:28:14.938Z,9.00
2018-10-01T22:30:43.559Z,9.00
2018-10-01T22:33:12.195Z,9.00
2018-10-01T22:35:40.889Z,9.10
2018-10-01T22:38:09.380Z,9.10
2018-10-01T22:40:38.144Z,9.10
2018-10-01T22:43:06.857Z,9.20
2018-10-01T22:45:35.300Z,9.10
2018-10-01T22:48:04.578Z,9.20
2018-10-01T22:50:33.166Z,9.20
2018-10-01T22:53:01.938Z,9.20
2018-10-01T22:55:30.593Z,9.20
2018-10-01T22:57:59.504Z,9.30
2018-10-01T23:00:28.632Z,9.30
2018-10-01T23:02:57.875Z,9.30
2018-10-01T23:05:26.893Z,9.30
2018-10-01T23:07:55.936Z,9.40
2018-10-01T23:10:24.406Z,9.40
2018-10-01T23:12:52.792Z,9.40
2018-10-01T23:15:22.048Z,9.40
2018-10-01T23:17:50.852Z,9.40
2018-10-01T23:20:19.647Z,9.40
2018-10-01T23:22:48.191Z,9.40
2018-10-01T23:25:16.769Z,9.40
2018-10-01T23:27:45.903Z,9.50
2018-10-01T23:30:15.141Z,9.50
2018-10-01T23:32:43.940Z,9.60
2018-10-01T23:35:13.348Z,9.60
2018-10-01T23:37:42.336Z,9.60
2018-10-01T23:40:10.892Z,9.60
2018-10-01T23:42:40.500Z,9.60
2018-10-01T23:45:09.665Z,9.60
2018-10-01T23:47:38.960Z,9.60
2018-10-01T23:50:07.611Z,9.70
2018-10-01T23:52:37.267Z,9.70
2018-10-01T23:55:06.902Z,9.70
2018-10-01T23:57:36.207Z,9.80
